Decoded Metar for OICI (ILAM in IRAN) (IATA:N/A) | Meteo·Mobile Aviation Weather
aviador You're here:

OICI Decoded Metar

ILAM in IRAN
Report Time2019-04-19 22:00:00
UTC Time2019-04-19 22:46:59
Flight Rules vfr VFR
Wind210° at 02 kt
W.Decomp.*RWY 14: 0.8 kt HW 1.8 kt RCW
Visibility9999 m
Phenomena:N/A
Clouds:Few TCU 035 Hf
Scattered 040 Hf
Expected CloudBase > 2,000 ft AGL from Temp-Dew spread
CeilingNone
Temp11°C (ISA +5)
Dew Point06°C (72% RH)
AAT9.4°C
QNH1014 hPa
Density Alt5,069 ft
Elevation4,403 ft
Report Wrong Elevation
Raw Report
METAR OICI 192200Z 21002KT 9999 FEW035TCU SCT040 11/06 Q1014=

Extra information for OICI:More info

Metar Taf Metar & Taf Last 4 Metars F.Rules Stats Wind Profile Meteogram Temp Stats Airport Information Weather charts Add Link Nearby VenuesMetar ALERT Operation Metar Decoded Social comments